Metar Cercanos

 

LEPA - Palma De Mallorc, Spain
Distance from station: ONO 38km
Actualización: Sun, 26-Jun-2022 4:00pm CEST
Few Clouds
Few Clouds
 Viento del SO
Viento: SO 19 km/h
Temperatura: 29°C
Indice Calor: 31°C
Rocío: 21°C
Humedad: 62%
Barómetro: 1009 hPa
Clouds: Few Clouds
Visibility: 10 km
Cloud details: Few Clouds 762 m
2022/06/26 14:00 LEPA 261400Z 22010KT 9999 FEW025 29/21 Q1009 NOSIG
LEMH - Mahon/Menorca Is, Spain
Distance from station: ENE 105km
Actualización: Sun, 26-Jun-2022 4:00pm CEST
Few Clouds
Few Clouds
 Viento del S
Viento: S 15 km/h
Temperatura: 28°C
Indice Calor: 30°C
Rocío: 21°C
Humedad: 66%
Barómetro: 1009 hPa
Clouds: Few Clouds
Visibility: 10 km
Cloud details: Few Clouds 762 m
2022/06/26 14:00 LEMH 261400Z 19008KT 150V240 9999 FEW025 28/21 Q1009
 
LEIB - Ibiza/Es Codola, Spain
Distance from station: OSO 165km
Actualización: Sun, 26-Jun-2022 4:00pm CEST
Despejado
Despejado
 Viento del SO
Viento: SO 15 km/h
Temperatura: 27°C
Indice Calor: 29°C
Rocío: 20°C
Humedad: 66%
Barómetro: 1009 hPa
Resumen: Despejado
Visibility: greater than 10 km
2022/06/26 14:00 LEIB 261400Z 23008KT 190V290 CAVOK 27/20 Q1009 NOSIG
LEBL - Barcelona Airpor, Spain
Distance from station: NNO 225km
Actualización: Sun, 26-Jun-2022 4:00pm CEST
Few Clouds
Few Clouds
 Viento del E
Viento: E 17 km/h
Temperatura: 26°C
Rocío: 20°C
Humedad: 70%
Barómetro: 1010 hPa
Clouds: Few Clouds
Visibility: 10 km
Cloud details: Few Clouds 366 m
2022/06/26 14:00 LEBL 261400Z 10009KT 9999 FEW012 26/20 Q1010 NOSIG
 
LEVC - Valencia (civ/Mi, Spain
Distance from station: NO 188km
Actualización: Sun, 26-Jun-2022 4:00pm CEST
Few Clouds
Few Clouds
 Viento del E
Viento: E 19 km/h
Temperatura: 28°C
Indice Calor: 28°C
Rocío: 17°C
Humedad: 51%
Barómetro: 1009 hPa
Clouds: Few Clouds
Visibility: 10 km
Cloud details: Few Clouds 914 m
2022/06/26 14:00 LEVC 261400Z 09010KT 050V120 9999 FEW030 28/17 Q1009 NOSIG
LEGE - Gerona/Costa Bra, Spain
Distance from station: N 276km
Actualización: Sun, 26-Jun-2022 4:00pm CEST
Few Clouds
Few Clouds
 Viento del SE
Viento: SE 13 km/h
Temperatura: 28°C
Indice Calor: 28°C
Rocío: 15°C
Humedad: 45%
Barómetro: 1009 hPa
Clouds: Few Clouds
Visibility: 10 km
Cloud details: Few Clouds 1372 m
2022/06/26 14:00 LEGE 261400Z 14007KT 080V190 9999 FEW045 28/15 Q1009
 
LEAL - Alicante/El Alte, Spain
Distance from station: OSO 344km
Actualización: Sun, 26-Jun-2022 4:00pm CEST
Despejado
Despejado
 Viento del E
Viento: E 15 km/h
Temperatura: 26°C
Rocío: 19°C
Humedad: 65%
Barómetro: 1009 hPa
Resumen: Despejado
Visibility: greater than 10 km
2022/06/26 14:00 LEAL 261400Z 08008KT 040V120 CAVOK 26/19 Q1009 NOSIG
LEAM - Almeria Airport, Spain
Distance from station: SSO 56km
Actualización: Sun, 26-Jun-2022 4:00pm CEST
Despejado
Despejado
 Viento del varies
Viento: varies 7 km/h
Temperatura: 23°C
Rocío: 17°C
Humedad: 69%
Barómetro: 1008 hPa
Resumen: Despejado
Visibility: greater than 10 km
2022/06/26 14:00 LEAM 261400Z VRB04KT CAVOK 23/17 Q1008
 
LEZG - Zaragoza (mil/Ci, Spain
Distance from station: NO 431km
Actualización: Sun, 26-Jun-2022 4:00pm CEST
Few Clouds
Few Clouds
 Viento del varies
Viento: varies 7 km/h
Temperatura: 27°C
Rocío: 11°C
Humedad: 37%
Barómetro: 1010 hPa
Clouds: Few Clouds
Visibility: 10 km
Cloud details: Few Clouds 2438 m
2022/06/26 14:00 LEZG 261400Z VRB04KT 9999 FEW080 27/11 Q1010
LEMD - Madrid/Barajas, Spain
Distance from station: ONO 234km
Actualización: Sun, 26-Jun-2022 4:00pm CEST
Despejado
Despejado
 Viento del SSO
Viento: SSO 20 km/h, Racha: 44 km/h
Temperatura: 28°C
Rocío: -7°C
Humedad: 9%
Barómetro: 1011 hPa
Resumen: Despejado
Visibility: greater than 10 km
2022/06/26 14:00 LEMD 261400Z 20011G24KT 080V230 CAVOK 28/M07 Q1011 NOSIG
 
LEGR - Granada Airport, Spain
Distance from station: OSO 62km
Actualización: Sun, 26-Jun-2022 4:00pm CEST
Despejado
Despejado
 Viento del NO
Viento: NO 11 km/h
Temperatura: 29°C
Rocío: 9°C
Humedad: 29%
Barómetro: 1011 hPa
Resumen: Despejado
Visibility: greater than 10 km
2022/06/26 14:00 LEGR 261400Z 31006KT 260V360 CAVOK 29/09 Q1011
LEMG - Malaga (civ/Mil), Spain
Distance from station: OSO 227km
Actualización: Sun, 26-Jun-2022 4:00pm CEST
Despejado
Despejado
 Viento del S
Viento: S 24 km/h
Temperatura: 31°C
Rocío: 11°C
Humedad: 29%
Barómetro: 1009 hPa
Resumen: Despejado
Visibility: greater than 10 km
2022/06/26 14:00 LEMG 261400Z 19013KT 140V240 CAVOK 31/11 Q1009 NOSIG
 
LEZL - Sevilla (civ/Mil, Spain
Distance from station: S 318km
Actualización: Sun, 26-Jun-2022 4:00pm CEST
Despejado
Despejado
 Viento del OSO
Viento: OSO 15 km/h
Temperatura: 29°C
Rocío: -1°C
Humedad: 14%
Barómetro: 1011 hPa
Resumen: Despejado
Visibility: greater than 10 km
2022/06/26 14:00 LEZL 261400Z 24008KT 170V300 CAVOK 29/M01 Q1011 NOSIG
LEVT - Vitoria, Spain
Distance from station: NO 226km
Actualización: Sun, 26-Jun-2022 4:00pm CEST
Muy nuboso
Muy nuboso
 Viento del NO
Viento: NO 20 km/h
Temperatura: 15°C
Rocío: 11°C
Humedad: 77%
Barómetro: 1015 hPa
Clouds: Muy nuboso
Visibility: 10 km
Cloud details: Few Clouds 610 m
Muy nuboso 762 m
2022/06/26 14:00 LEVT 261400Z 32011KT 290V010 9999 FEW020 BKN025 15/11 Q1015
 
LEBB - Bilbao/Sondica, Spain
Distance from station: NNO 235km
Actualización: Sun, 26-Jun-2022 4:00pm CEST
Muy nuboso
Muy nuboso
 Viento del NNO
Viento: NNO 13 km/h
Temperatura: 17°C
Rocío: 14°C
Humedad: 83%
Barómetro: 1016 hPa
Clouds: Muy nuboso
Visibility: 10 km
Cloud details: Few Clouds 488 m
Parcialmente nuboso 914 m
Muy nuboso 1189 m
2022/06/26 14:00 LEBB 261400Z 33007KT 290V010 9999 FEW016 SCT030 BKN039 17/14 Q1016 NOSIG
LESO - San Sebastian/Fu, Spain
Distance from station: N 231km
Actualización: Sun, 26-Jun-2022 4:00pm CEST
Cubierto
Cubierto
 Viento del NNE
Viento: NNE 11 km/h
Temperatura: 19°C
Rocío: 13°C
Humedad: 68%
Barómetro: 1015 hPa
Clouds: Cubierto
Visibility: 10 km
Cloud details: Parcialmente nuboso 1219 m
Cubierto 1676 m
2022/06/26 14:00 LESO 261400Z 03006KT 360V070 9999 SCT040 OVC055 19/13 Q1015
 
LEVD - Valladolid(Mil/C, Spain
Distance from station: ONO 239km
Actualización: Sun, 26-Jun-2022 4:00pm CEST
Despejado
Despejado
 Viento del ONO
Viento: ONO 7 km/h
Temperatura: 22°C
Rocío: 2°C
Humedad: 27%
Barómetro: 1013 hPa
Resumen: Despejado
Visibility: greater than 10 km
2022/06/26 14:00 LEVD 261400Z 29004KT CAVOK 22/02 Q1013
LESA - Salamanca (civ/M, Spain
Distance from station: ONO 349km
Actualización: Sun, 26-Jun-2022 4:00pm CEST
Few Clouds
Few Clouds
 Viento del varies
Viento: varies 7 km/h
Temperatura: 21°C
Rocío: 3°C
Humedad: 31%
Barómetro: 1013 hPa
Clouds: Few Clouds
Visibility: 10 km
Cloud details: Few Clouds 1372 m
2022/06/26 14:00 LESA 261400Z VRB04KT 9999 FEW045 21/03 Q1013
 
LEXJ - Santander/Paraya, Spain
Distance from station: NNO 247km
Actualización: Sun, 26-Jun-2022 4:00pm CEST
Cubierto
Cubierto
 Viento del S
Viento: S 7 km/h
Temperatura: 17°C
Rocío: 10°C
Humedad: 64%
Barómetro: 1016 hPa
Clouds: Cubierto
Visibility: 10 km
Cloud details: Muy nuboso 1036 m
Cubierto 1524 m
2022/06/26 14:00 LEXJ 261400Z 17004KT 090V240 9999 BKN034 OVC050 17/10 Q1016
LEAS - Asturias/Aviles, Spain
Distance from station: NO 214km
Actualización: Sun, 26-Jun-2022 4:00pm CEST
Few Clouds
Few Clouds
 Viento del NO
Viento: NO 17 km/h
Temperatura: 17°C
Rocío: 11°C
Humedad: 68%
Barómetro: 1017 hPa
Clouds: Few Clouds
Visibility: 10 km
Cloud details: Few Clouds 914 m
2022/06/26 14:00 LEAS 261400Z 31009KT 260V360 9999 FEW030 17/11 Q1017 NOSIG
 
LECO - La Coruna/Alvedr, Spain
Distance from station: ONO 222km
Actualización: Sun, 26-Jun-2022 4:00pm CEST
Few Clouds
Few Clouds
 Viento del NNO
Viento: NNO 13 km/h
Temperatura: 18°C
Rocío: 9°C
Humedad: 56%
Barómetro: 1017 hPa
Clouds: Few Clouds
Visibility: 10 km
Cloud details: Few Clouds 975 m
2022/06/26 14:00 LECO 261400Z 33007KT 240V040 9999 FEW032 18/09 Q1017 NOSIG
LEVX - Vigo/Peinador, Spain
Distance from station: O 214km
Actualización: Sun, 26-Jun-2022 4:00pm CEST
Few Clouds
Few Clouds
 Viento del O
Viento: O 19 km/h
Temperatura: 18°C
Rocío: 9°C
Humedad: 56%
Barómetro: 1017 hPa
Clouds: Few Clouds
Visibility: 10 km
Cloud details: Few Clouds 1067 m
2022/06/26 14:00 LEVX 261400Z 28010KT 240V320 9999 FEW035 18/09 Q1017 NOSIG